NCAR-RAP Real-Time Weather Data

Output produced by METARs form (24 July 2017  08:52 UTC)
found at http://weather.rap.ucar.edu/surface/
 
Conditions at: KZPH observed 24 July 2017  08:35 UTC
Temperature: 24.0°C (75°F)
Dewpoint: 23.7°C (75°F) [RH = 98%]
Pressure (altimeter): 30.02 inches Hg (1016.7 mb)
Winds: calm
Visibility: 7 miles (11 km)
Ceiling: at least 12,000 feet AGL
Clouds: sky clear below 12,000 feet AGL
Present Weather: automated observation with no human augmentation;
there may or may not be significant weather present at this time
KZPH 240835Z AUTO 00000KT 7SM CLR 24/24 A3002 RMK AO2 LTG DSNT NW T02400237

Conditions at: KZPH observed 24 July 2017  08:15 UTC
Temperature: 23.5°C (74°F)
Dewpoint: 23.5°C (74°F) [RH = 100%]
Pressure (altimeter): 30.02 inches Hg (1016.7 mb)
Winds: calm
Visibility: 5 miles (8 km)
Ceiling: at least 12,000 feet AGL
Clouds: sky clear below 12,000 feet AGL
Present Weather: BR  (mist)
KZPH 240815Z AUTO 00000KT 5SM BR CLR 24/24 A3002 RMK AO2 T02350235

Conditions at: KZPH observed 24 July 2017  07:55 UTC
Temperature: 23.6°C (74°F)
Dewpoint: 23.5°C (74°F) [RH = 99%]
Pressure (altimeter): 30.02 inches Hg (1016.7 mb)
Winds: calm
Visibility: 5 miles (8 km)
Ceiling: at least 12,000 feet AGL
Clouds: sky clear below 12,000 feet AGL
Present Weather: BR  (mist)
KZPH 240755Z AUTO 00000KT 5SM BR CLR 24/24 A3002 RMK AO2 LTG DSNT SE AND NW T02360235

Conditions at: KZPH observed 24 July 2017  07:35 UTC
Temperature: 23.6°C (74°F)
Dewpoint: 23.5°C (74°F) [RH = 99%]
Pressure (altimeter): 30.03 inches Hg (1017.0 mb)
Winds: calm
Visibility: 5 miles (8 km)
Ceiling: at least 12,000 feet AGL
Clouds: sky clear below 12,000 feet AGL
Present Weather: BR  (mist)
KZPH 240735Z AUTO 00000KT 5SM BR CLR 24/24 A3003 RMK AO2 T02360235

Conditions at: KZPH observed 24 July 2017  07:15 UTC
Temperature: 23.5°C (74°F)
Dewpoint: 23.2°C (74°F) [RH = 98%]
Pressure (altimeter): 30.03 inches Hg (1017.0 mb)
Winds: calm
Visibility: 7 miles (11 km)
Ceiling: at least 12,000 feet AGL
Clouds: sky clear below 12,000 feet AGL
Present Weather: automated observation with no human augmentation;
there may or may not be significant weather present at this time
KZPH 240715Z AUTO 00000KT 7SM CLR 24/23 A3003 RMK AO2 LTG DSNT NW T02350232

Conditions at: KZPH observed 24 July 2017  06:55 UTC
Temperature: 23.6°C (74°F)
Dewpoint: 23.4°C (74°F) [RH = 99%]
Pressure (altimeter): 30.04 inches Hg (1017.4 mb)
Winds: calm
Visibility: 7 miles (11 km)
Ceiling: at least 12,000 feet AGL
Clouds: sky clear below 12,000 feet AGL
Present Weather: automated observation with no human augmentation;
there may or may not be significant weather present at this time
KZPH 240655Z AUTO 00000KT 7SM CLR 24/23 A3004 RMK AO2 LTG DSNT W AND NW T02360234

Conditions at: KZPH observed 24 July 2017  06:35 UTC
Temperature: 23.7°C (75°F)
Dewpoint: 23.5°C (74°F) [RH = 99%]
Pressure (altimeter): 30.04 inches Hg (1017.4 mb)
Winds: calm
Visibility: 7 miles (11 km)
Ceiling: at least 12,000 feet AGL
Clouds: sky clear below 12,000 feet AGL
Present Weather: automated observation with no human augmentation;
there may or may not be significant weather present at this time
KZPH 240635Z AUTO 00000KT 7SM CLR 24/24 A3004 RMK AO2 LTG DSNT NW T02370235

Conditions at: KZPH observed 24 July 2017  06:15 UTC
Temperature: 23.6°C (74°F)
Dewpoint: 23.4°C (74°F) [RH = 99%]
Pressure (altimeter): 30.04 inches Hg (1017.4 mb)
Winds: calm
Visibility: 7 miles (11 km)
Ceiling: at least 12,000 feet AGL
Clouds: sky clear below 12,000 feet AGL
Present Weather: automated observation with no human augmentation;
there may or may not be significant weather present at this time
KZPH 240615Z AUTO 00000KT 7SM CLR 24/23 A3004 RMK AO2 LTG DSNT N AND NW T02360234

Conditions at: KZPH observed 24 July 2017  05:55 UTC
Temperature: 23.8°C (75°F)
Dewpoint: 23.5°C (74°F) [RH = 98%]
Pressure (altimeter): 30.04 inches Hg (1017.4 mb)
Winds: calm
Visibility: 10 or more miles (16+ km)
Ceiling: at least 12,000 feet AGL
Clouds: sky clear below 12,000 feet AGL
Present Weather: automated observation with no human augmentation;
there may or may not be significant weather present at this time
KZPH 240555Z AUTO 00000KT 10SM CLR 24/24 A3004 RMK AO2 T02380235 10260 20236 402680230

Conditions at: KZPH observed 24 July 2017  05:35 UTC
Temperature: 23.8°C (75°F)
Dewpoint: 23.5°C (74°F) [RH = 98%]
Pressure (altimeter): 30.05 inches Hg (1017.7 mb)
Winds: calm
Visibility: 10 or more miles (16+ km)
Ceiling: at least 12,000 feet AGL
Clouds: sky clear below 12,000 feet AGL
Present Weather: automated observation with no human augmentation;
there may or may not be significant weather present at this time
KZPH 240535Z AUTO 00000KT 10SM CLR 24/24 A3005 RMK AO2 LTG DSNT NW T02380235

Conditions at: KZPH observed 24 July 2017  05:15 UTC
Temperature: 23.7°C (75°F)
Dewpoint: 23.5°C (74°F) [RH = 99%]
Pressure (altimeter): 30.05 inches Hg (1017.7 mb)
Winds: from the SSE (150 degrees) at 3 MPH (3 knots; 1.6 m/s)
Visibility: 10 or more miles (16+ km)
Ceiling: at least 12,000 feet AGL
Clouds: sky clear below 12,000 feet AGL
Present Weather: automated observation with no human augmentation;
there may or may not be significant weather present at this time
KZPH 240515Z AUTO 15003KT 10SM CLR 24/24 A3005 RMK AO2 LTG DSNT NW T02370235

Conditions at: KZPH observed 24 July 2017  04:55 UTC
Temperature: 23.7°C (75°F)
Dewpoint: 23.5°C (74°F) [RH = 99%]
Pressure (altimeter): 30.06 inches Hg (1018.0 mb)
Winds: calm
Visibility: 7 miles (11 km)
Ceiling: at least 12,000 feet AGL
Clouds: sky clear below 12,000 feet AGL
Present Weather: automated observation with no human augmentation;
there may or may not be significant weather present at this time
KZPH 240455Z AUTO 00000KT 7SM CLR 24/24 A3006 RMK AO2 T02370235

Conditions at: KZPH observed 24 July 2017  04:35 UTC
Temperature: 23.7°C (75°F)
Dewpoint: 23.5°C (74°F) [RH = 99%]
Pressure (altimeter): 30.06 inches Hg (1018.0 mb)
Winds: calm
Visibility: 7 miles (11 km)
Ceiling: at least 12,000 feet AGL
Clouds: sky clear below 12,000 feet AGL
Present Weather: automated observation with no human augmentation;
there may or may not be significant weather present at this time
KZPH 240435Z AUTO 00000KT 7SM CLR 24/24 A3006 RMK AO2 T02370235

Conditions at: KZPH observed 24 July 2017  04:15 UTC
Temperature: 23.7°C (75°F)
Dewpoint: 23.5°C (74°F) [RH = 99%]
Pressure (altimeter): 30.06 inches Hg (1018.0 mb)
Winds: calm
Visibility: 10 or more miles (16+ km)
Ceiling: at least 12,000 feet AGL
Clouds: sky clear below 12,000 feet AGL
Present Weather: automated observation with no human augmentation;
there may or may not be significant weather present at this time
KZPH 240415Z AUTO 00000KT 10SM CLR 24/24 A3006 RMK AO2 T02370235

Conditions at: KZPH observed 24 July 2017  03:55 UTC
Temperature: 23.7°C (75°F)
Dewpoint: 23.5°C (74°F) [RH = 99%]
Pressure (altimeter): 30.06 inches Hg (1018.0 mb)
Winds: calm
Visibility: 10 or more miles (16+ km)
Ceiling: at least 12,000 feet AGL
Clouds: sky clear below 12,000 feet AGL
Present Weather: automated observation with no human augmentation;
there may or may not be significant weather present at this time
KZPH 240355Z AUTO 00000KT 10SM CLR 24/24 A3006 RMK AO2 T02370235

Conditions at: KZPH observed 24 July 2017  03:35 UTC
Temperature: 23.7°C (75°F)
Dewpoint: 23.5°C (74°F) [RH = 99%]
Pressure (altimeter): 30.06 inches Hg (1018.0 mb)
Winds: calm
Visibility: 10 or more miles (16+ km)
Ceiling: at least 12,000 feet AGL
Clouds: sky clear below 12,000 feet AGL
Present Weather: automated observation with no human augmentation;
there may or may not be significant weather present at this time
KZPH 240335Z AUTO 00000KT 10SM CLR 24/24 A3006 RMK AO2 T02370235

Conditions at: KZPH observed 24 July 2017  03:15 UTC
Temperature: 23.8°C (75°F)
Dewpoint: 23.6°C (74°F) [RH = 99%]
Pressure (altimeter): 30.06 inches Hg (1018.0 mb)
Winds: calm
Visibility: 7 miles (11 km)
Ceiling: at least 12,000 feet AGL
Clouds: sky clear below 12,000 feet AGL
Present Weather: automated observation with no human augmentation;
there may or may not be significant weather present at this time
KZPH 240315Z AUTO 00000KT 7SM CLR 24/24 A3006 RMK AO2 T02380236

Conditions at: KZPH observed 24 July 2017  02:55 UTC
Temperature: 23.7°C (75°F)
Dewpoint: 23.5°C (74°F) [RH = 99%]
Pressure (altimeter): 30.04 inches Hg (1017.4 mb)
Winds: calm
Visibility: 7 miles (11 km)
Ceiling: at least 12,000 feet AGL
Clouds: sky clear below 12,000 feet AGL
Present Weather: automated observation with no human augmentation;
there may or may not be significant weather present at this time
KZPH 240255Z AUTO 00000KT 7SM CLR 24/24 A3004 RMK AO2 T02370235

Conditions at: KZPH observed 24 July 2017  02:35 UTC
Temperature: 23.7°C (75°F)
Dewpoint: 23.5°C (74°F) [RH = 99%]
Pressure (altimeter): 30.04 inches Hg (1017.4 mb)
Winds: calm
Visibility: 7 miles (11 km)
Ceiling: at least 12,000 feet AGL
Clouds: sky clear below 12,000 feet AGL
Present Weather: automated observation with no human augmentation;
there may or may not be significant weather present at this time
KZPH 240235Z AUTO 00000KT 7SM CLR 24/24 A3004 RMK AO2 T02370235

Conditions at: KZPH observed 24 July 2017  02:15 UTC
Temperature: 23.7°C (75°F)
Dewpoint: 23.5°C (74°F) [RH = 99%]
Pressure (altimeter): 30.03 inches Hg (1017.0 mb)
Winds: calm
Visibility: 7 miles (11 km)
Ceiling: at least 12,000 feet AGL
Clouds: sky clear below 12,000 feet AGL
Present Weather: automated observation with no human augmentation;
there may or may not be significant weather present at this time
KZPH 240215Z AUTO 00000KT 7SM CLR 24/24 A3003 RMK AO2 T02370235

Conditions at: KZPH observed 24 July 2017  01:55 UTC
Temperature: 24.1°C (75°F)
Dewpoint: 23.8°C (75°F) [RH = 98%]
Pressure (altimeter): 30.02 inches Hg (1016.7 mb)
Winds: calm
Visibility: 10 or more miles (16+ km)
Ceiling: at least 12,000 feet AGL
Clouds: sky clear below 12,000 feet AGL
Present Weather: automated observation with no human augmentation;
there may or may not be significant weather present at this time
KZPH 240155Z AUTO 00000KT 10SM CLR 24/24 A3002 RMK AO2 T02410238

Conditions at: KZPH observed 24 July 2017  01:35 UTC
Temperature: 24.3°C (76°F)
Dewpoint: 23.8°C (75°F) [RH = 97%]
Pressure (altimeter): 30.02 inches Hg (1016.7 mb)
Winds: calm
Visibility: 10 or more miles (16+ km)
Ceiling: at least 12,000 feet AGL
Clouds: sky clear below 12,000 feet AGL
Present Weather: automated observation with no human augmentation;
there may or may not be significant weather present at this time
KZPH 240135Z AUTO 00000KT 10SM CLR 24/24 A3002 RMK AO2 T02430238

Conditions at: KZPH observed 24 July 2017  01:15 UTC
Temperature: 24.5°C (76°F)
Dewpoint: 24.0°C (75°F) [RH = 97%]
Pressure (altimeter): 30.01 inches Hg (1016.3 mb)
Winds: calm
Visibility: 10 or more miles (16+ km)
Ceiling: at least 12,000 feet AGL
Clouds: sky clear below 12,000 feet AGL
Present Weather: automated observation with no human augmentation;
there may or may not be significant weather present at this time
KZPH 240115Z AUTO 00000KT 10SM CLR 25/24 A3001 RMK AO2 T02450240

Conditions at: KZPH observed 24 July 2017  00:55 UTC
Temperature: 25.2°C (77°F)
Dewpoint: 24.2°C (76°F) [RH = 94%]
Pressure (altimeter): 30.00 inches Hg (1016.0 mb)
Winds: from the NNW (330 degrees) at 3 MPH (3 knots; 1.6 m/s)
Visibility: 10 or more miles (16+ km)
Ceiling: at least 12,000 feet AGL
Clouds: sky clear below 12,000 feet AGL
Present Weather: automated observation with no human augmentation;
there may or may not be significant weather present at this time
KZPH 240055Z AUTO 33003KT 10SM CLR 25/24 A3000 RMK AO2 T02520242

Conditions at: KZPH observed 24 July 2017  00:35 UTC
Temperature: 25.5°C (78°F)
Dewpoint: 24.2°C (76°F) [RH = 93%]
Pressure (altimeter): 30.00 inches Hg (1016.0 mb)
Winds: calm
Visibility: 10 or more miles (16+ km)
Ceiling: at least 12,000 feet AGL
Clouds: sky clear below 12,000 feet AGL
Present Weather: automated observation with no human augmentation;
there may or may not be significant weather present at this time
KZPH 240035Z AUTO 00000KT 10SM CLR 26/24 A3000 RMK AO2 T02550242

Conditions at: KZPH observed 24 July 2017  00:15 UTC
Temperature: 25.7°C (78°F)
Dewpoint: 24.1°C (75°F) [RH = 91%]
Pressure (altimeter): 30.00 inches Hg (1016.0 mb)
Winds: from the SSW (200 degrees) at 3 MPH (3 knots; 1.6 m/s)
Visibility: 10 or more miles (16+ km)
Ceiling: at least 12,000 feet AGL
Clouds: sky clear below 12,000 feet AGL
Present Weather: automated observation with no human augmentation;
there may or may not be significant weather present at this time
KZPH 240015Z AUTO 20003KT 10SM CLR 26/24 A3000 RMK AO2 T02570241

Conditions at: KZPH observed 23 July 2017  23:55 UTC
Temperature: 26.0°C (79°F)
Dewpoint: 24.0°C (75°F) [RH = 89%]
Pressure (altimeter): 29.98 inches Hg (1015.3 mb)
Winds: from the S (180 degrees) at 6 MPH (5 knots; 2.6 m/s)
Visibility: 10 or more miles (16+ km)
Ceiling: at least 12,000 feet AGL
Clouds: sky clear below 12,000 feet AGL
Present Weather: automated observation with no human augmentation;
there may or may not be significant weather present at this time
KZPH 232355Z AUTO 18005KT 10SM CLR 26/24 A2998 RMK AO2 T02600240 10268 20245

Conditions at: KZPH observed 23 July 2017  23:35 UTC
Temperature: 26.4°C (80°F)
Dewpoint: 23.8°C (75°F) [RH = 86%]
Pressure (altimeter): 29.98 inches Hg (1015.3 mb)
Winds: from the S (170 degrees) at 7 MPH (6 knots; 3.1 m/s)
Visibility: 10 or more miles (16+ km)
Ceiling: at least 12,000 feet AGL
Clouds: sky clear below 12,000 feet AGL
Present Weather: automated observation with no human augmentation;
there may or may not be significant weather present at this time
KZPH 232335Z AUTO 17006KT 10SM CLR 26/24 A2998 RMK AO2 T02640238

Conditions at: KZPH observed 23 July 2017  23:15 UTC
Temperature: 26.2°C (79°F)
Dewpoint: 24.3°C (76°F) [RH = 89%]
Pressure (altimeter): 29.99 inches Hg (1015.7 mb)
Winds: from the S (180 degrees) at 5 MPH (4 knots; 2.1 m/s)
Visibility: 10 or more miles (16+ km)
Ceiling: at least 12,000 feet AGL
Clouds: sky clear below 12,000 feet AGL
Present Weather: automated observation with no human augmentation;
there may or may not be significant weather present at this time
KZPH 232315Z AUTO 18004KT 10SM CLR 26/24 A2999 RMK AO2 T02620243

Conditions at: KZPH observed 23 July 2017  22:55 UTC
Temperature: 26.1°C (79°F)
Dewpoint: 24.0°C (75°F) [RH = 88%]
Pressure (altimeter): 30.00 inches Hg (1016.0 mb)
Winds: from the SSE (160 degrees) at 8 MPH (7 knots; 3.6 m/s)
Visibility: 10 or more miles (16+ km)
Ceiling: at least 12,000 feet AGL
Clouds: sky clear below 12,000 feet AGL
Present Weather: automated observation with no human augmentation;
there may or may not be significant weather present at this time
KZPH 232255Z AUTO 16007KT 10SM CLR 26/24 A3000 RMK AO2 T02610240

Conditions at: KZPH observed 23 July 2017  22:35 UTC
Temperature: 26.3°C (79°F)
Dewpoint: 23.9°C (75°F) [RH = 87%]
Pressure (altimeter): 30.01 inches Hg (1016.3 mb)
Winds: from the S (170 degrees) at 5 MPH (4 knots; 2.1 m/s)
Visibility: 10 or more miles (16+ km)
Ceiling: at least 12,000 feet AGL
Clouds: sky clear below 12,000 feet AGL
Present Weather: automated observation with no human augmentation;
there may or may not be significant weather present at this time
KZPH 232235Z AUTO 17004KT 10SM CLR 26/24 A3001 RMK AO2 T02630239

Conditions at: KZPH observed 23 July 2017  22:15 UTC
Temperature: 26.5°C (80°F)
Dewpoint: 23.2°C (74°F) [RH = 82%]
Pressure (altimeter): 30.02 inches Hg (1016.7 mb)
Winds: from the S (170 degrees) at 3 MPH (3 knots; 1.6 m/s)
Visibility: 10 or more miles (16+ km)
Ceiling: at least 12,000 feet AGL
Clouds: sky clear below 12,000 feet AGL
Present Weather: automated observation with no human augmentation;
there may or may not be significant weather present at this time
KZPH 232215Z AUTO 17003KT 10SM CLR 27/23 A3002 RMK AO2 LTG DSNT W T02650232

Conditions at: KZPH observed 23 July 2017  21:55 UTC
Temperature: 26.6°C (80°F)
Dewpoint: 23.6°C (74°F) [RH = 84%]
Pressure (altimeter): 30.03 inches Hg (1017.0 mb)
Winds: calm
Visibility: 10 or more miles (16+ km)
Ceiling: at least 12,000 feet AGL
Clouds: sky clear below 12,000 feet AGL
Present Weather: automated observation with no human augmentation;
there may or may not be significant weather present at this time
KZPH 232155Z AUTO 00000KT 10SM CLR 27/24 A3003 RMK AO2 T02660236

Conditions at: KZPH observed 23 July 2017  21:35 UTC
Temperature: 26.6°C (80°F)
Dewpoint: 23.0°C (73°F) [RH = 81%]
Pressure (altimeter): 30.03 inches Hg (1017.0 mb)
Winds: calm
Visibility: 10 or more miles (16+ km)
Ceiling: at least 12,000 feet AGL
Clouds: sky clear below 12,000 feet AGL
Present Weather: automated observation with no human augmentation;
there may or may not be significant weather present at this time
KZPH 232135Z AUTO 00000KT 10SM CLR 27/23 A3003 RMK AO2 LTG DSNT S T02660230

Conditions at: KZPH observed 23 July 2017  21:15 UTC
Temperature: 25.8°C (78°F)
Dewpoint: 23.3°C (74°F) [RH = 86%]
Pressure (altimeter): 30.04 inches Hg (1017.4 mb)
Winds: calm
Visibility: 10 or more miles (16+ km)
Ceiling: at least 12,000 feet AGL
Clouds: sky clear below 12,000 feet AGL
Present Weather: automated observation with no human augmentation;
there may or may not be significant weather present at this time
KZPH 232115Z AUTO 00000KT 10SM CLR 26/23 A3004 RMK AO2 T02580233

Conditions at: KZPH observed 23 July 2017  20:55 UTC
Temperature: 25.6°C (78°F)
Dewpoint: 23.3°C (74°F) [RH = 87%]
Pressure (altimeter): 30.05 inches Hg (1017.7 mb)
Winds: calm
Visibility: 10 or more miles (16+ km)
Ceiling: at least 12,000 feet AGL
Clouds: sky clear below 12,000 feet AGL
Present Weather: automated observation with no human augmentation;
there may or may not be significant weather present at this time
KZPH 232055Z AUTO 00000KT 10SM CLR 26/23 A3005 RMK AO2 T02560233

Conditions at: KZPH observed 23 July 2017  20:35 UTC
Temperature: 25.5°C (78°F)
Dewpoint: 23.8°C (75°F) [RH = 90%]
Pressure (altimeter): 30.05 inches Hg (1017.7 mb)
Winds: calm
Visibility: 10 or more miles (16+ km)
Ceiling: at least 12,000 feet AGL
Clouds: sky clear below 12,000 feet AGL
Present Weather: automated observation with no human augmentation;
there may or may not be significant weather present at this time
KZPH 232035Z AUTO 00000KT 10SM CLR 26/24 A3005 RMK AO2 LTG DSNT NE T02550238

Conditions at: KZPH observed 23 July 2017  20:15 UTC
Temperature: 25.2°C (77°F)
Dewpoint: 23.7°C (75°F) [RH = 91%]
Pressure (altimeter): 30.07 inches Hg (1018.4 mb)
Winds: from the W (280 degrees) at 6 MPH (5 knots; 2.6 m/s)
Visibility: 10 or more miles (16+ km)
Ceiling: at least 12,000 feet AGL
Clouds: sky clear below 12,000 feet AGL
Present Weather: automated observation with no human augmentation;
there may or may not be significant weather present at this time
KZPH 232015Z AUTO 28005KT 10SM CLR 25/24 A3007 RMK AO2 LTG DSNT SE T02520237

Conditions at: KZPH observed 23 July 2017  19:55 UTC
Temperature: 25.0°C (77°F)
Dewpoint: 23.5°C (74°F) [RH = 91%]
Pressure (altimeter): 30.06 inches Hg (1018.0 mb)
Winds: from the WNW (300 degrees) at 5 MPH (4 knots; 2.1 m/s)
Visibility: 10 or more miles (16+ km)
Ceiling: at least 12,000 feet AGL
Clouds: sky clear below 12,000 feet AGL
Present Weather: -DZ  (light drizzle)
KZPH 231955Z AUTO 30004KT 10SM -DZ CLR 25/24 A3006 RMK AO2 LTG DSNT SE T02500235

Conditions at: KZPH observed 23 July 2017  19:35 UTC
Temperature: 25.0°C (77°F)
Dewpoint: 23.4°C (74°F) [RH = 91%]
Pressure (altimeter): 30.06 inches Hg (1018.0 mb)
Winds: calm
Visibility: 10 or more miles (16+ km)
Ceiling: at least 12,000 feet AGL
Clouds: sky clear below 12,000 feet AGL
Present Weather: automated observation with no human augmentation;
there may or may not be significant weather present at this time
KZPH 231935Z AUTO 00000KT 10SM CLR 25/23 A3006 RMK AO2 T02500234

Conditions at: KZPH observed 23 July 2017  19:15 UTC
Temperature: 25.0°C (77°F)
Dewpoint: 23.6°C (74°F) [RH = 92%]
Pressure (altimeter): 30.04 inches Hg (1017.4 mb)
Winds: from the E (100 degrees) at 3 MPH (3 knots; 1.6 m/s)
Visibility: 10 or more miles (16+ km)
Ceiling: at least 12,000 feet AGL
Clouds: sky clear below 12,000 feet AGL
Present Weather: -DZ  (light drizzle)
KZPH 231915Z AUTO 10003KT 10SM -DZ CLR 25/24 A3004 RMK AO2 LTG DSNT NE SE AND W T02500236

Conditions at: KZPH observed 23 July 2017  18:55 UTC
Temperature: 24.8°C (77°F)
Dewpoint: 23.5°C (74°F) [RH = 93%]
Pressure (altimeter): 30.07 inches Hg (1018.4 mb)
Winds: calm
Visibility: 10 or more miles (16+ km)
Ceiling: at least 12,000 feet AGL
Clouds: sky clear below 12,000 feet AGL
Present Weather: -DZ  (light drizzle)
KZPH 231855Z AUTO 00000KT 10SM -DZ CLR 25/24 A3007 RMK AO2 T02480235

Conditions at: KZPH observed 23 July 2017  18:35 UTC
Temperature: 24.7°C (76°F)
Dewpoint: 23.7°C (75°F) [RH = 94%]
Pressure (altimeter): 30.08 inches Hg (1018.7 mb)
Winds: from the SW (220 degrees) at 3 MPH (3 knots; 1.6 m/s)
Visibility: 10 or more miles (16+ km)
Ceiling: at least 12,000 feet AGL
Clouds: scattered clouds at 3500 feet AGL
scattered clouds at 4200 feet AGL
scattered clouds at 5000 feet AGL
Present Weather: -DZ  (light drizzle)
KZPH 231835Z AUTO 22003KT 10SM -DZ SCT035 SCT042 SCT050 25/24 A3008 RMK AO2 LTG DSNT NE T02470237

Conditions at: KZPH observed 23 July 2017  18:15 UTC
Temperature: 24.6°C (76°F)
Dewpoint: 23.3°C (74°F) [RH = 92%]
Pressure (altimeter): 30.09 inches Hg (1019.0 mb)
Winds: calm
Visibility: 10 or more miles (16+ km)
Ceiling: at least 12,000 feet AGL
Clouds: scattered clouds at 3300 feet AGL
Present Weather: -RA  (light rain)
KZPH 231815Z AUTO 00000KT 10SM -RA SCT033 25/23 A3009 RMK AO2 LTG DSNT NE T02460233

Conditions at: KZPH observed 23 July 2017  17:55 UTC
Temperature: 24.5°C (76°F)
Dewpoint: 23.1°C (74°F) [RH = 92%]
Pressure (altimeter): 30.09 inches Hg (1019.0 mb)
Winds: calm
Visibility: 10 or more miles (16+ km)
Ceiling: at least 12,000 feet AGL
Clouds: sky clear below 12,000 feet AGL
Present Weather: automated observation with no human augmentation;
there may or may not be significant weather present at this time
KZPH 231755Z AUTO 00000KT 10SM CLR 25/23 A3009 RMK AO2 LTG DSNT S 60022 T02450231 10258 20230

Conditions at: KZPH observed 23 July 2017  17:35 UTC
Temperature: 24.1°C (75°F)
Dewpoint: 22.7°C (73°F) [RH = 92%]
Pressure (altimeter): 30.09 inches Hg (1019.0 mb)
Winds: calm
Visibility: 10 or more miles (16+ km)
Ceiling: at least 12,000 feet AGL
Clouds: sky clear below 12,000 feet AGL
Present Weather: automated observation with no human augmentation;
there may or may not be significant weather present at this time
KZPH 231735Z AUTO 00000KT 10SM CLR 24/23 A3009 RMK AO2 LTG DSNT W T02410227

Conditions at: KZPH observed 23 July 2017  17:15 UTC
Temperature: 23.7°C (75°F)
Dewpoint: 22.6°C (73°F) [RH = 94%]
Pressure (altimeter): 30.10 inches Hg (1019.4 mb)
Winds: calm
Visibility: 10 or more miles (16+ km)
Ceiling: at least 12,000 feet AGL
Clouds: sky clear below 12,000 feet AGL
Present Weather: -RA  (light rain)
KZPH 231715Z AUTO 00000KT 10SM -RA CLR 24/23 A3010 RMK AO2 LTG DSNT E AND W T02370226

Conditions at: KZPH observed 23 July 2017  16:55 UTC
Temperature: 23.6°C (74°F)
Dewpoint: 22.4°C (72°F) [RH = 93%]
Pressure (altimeter): 30.10 inches Hg (1019.4 mb)
Winds: from the N (360 degrees) at 3 MPH (3 knots; 1.6 m/s)
Visibility: 10 or more miles (16+ km)
Ceiling: at least 12,000 feet AGL
Clouds: scattered clouds at 4600 feet AGL
scattered clouds at 5500 feet AGL
scattered clouds at 12000 feet AGL
Present Weather: -RA  (light rain)
KZPH 231655Z AUTO 36003KT 10SM -RA SCT046 SCT055 SCT120 24/22 A3010 RMK AO2 LTG DSNT E AND SW P0002 T02360224

Conditions at: KZPH observed 23 July 2017  16:35 UTC
Temperature: 23.3°C (74°F)
Dewpoint: 22.0°C (72°F) [RH = 92%]
Pressure (altimeter): 30.11 inches Hg (1019.7 mb)
Winds: calm
Visibility: 10 or more miles (16+ km)
Ceiling: 4700 feet AGL
Clouds: scattered clouds at 3400 feet AGL
scattered clouds at 4100 feet AGL
broken clouds at 4700 feet AGL
Present Weather: -RA  (light rain)
KZPH 231635Z AUTO 00000KT 10SM -RA SCT034 SCT041 BKN047 23/22 A3011 RMK AO2 LTG DSNT SW THRU NW P0002 T02330220

Conditions at: KZPH observed 23 July 2017  16:15 UTC
Temperature: 23.0°C (73°F)
Dewpoint: 22.0°C (72°F) [RH = 94%]
Pressure (altimeter): 30.11 inches Hg (1019.7 mb)
Winds: from the WNW (300 degrees) at 3 MPH (3 knots; 1.6 m/s)
Visibility: 10 or more miles (16+ km)
Ceiling: 3900 feet AGL
Clouds: broken clouds at 3900 feet AGL
broken clouds at 4600 feet AGL
overcast cloud deck at 5000 feet AGL
Present Weather: -RA  (light rain)
KZPH 231615Z AUTO 30003KT 10SM -RA BKN039 BKN046 OVC050 23/22 A3011 RMK AO2 LTG DSNT NE SW AND W P0001 T02300220

Conditions at: KZPH observed 23 July 2017  15:55 UTC
Temperature: 23.0°C (73°F)
Dewpoint: 22.4°C (72°F) [RH = 96%]
Pressure (altimeter): 30.11 inches Hg (1019.7 mb)
Winds: from the W (260 degrees) at 5 MPH (4 knots; 2.1 m/s)
Visibility: 5 miles (8 km)
Ceiling: 3700 feet AGL
Clouds: broken clouds at 3700 feet AGL
overcast cloud deck at 4400 feet AGL
Present Weather: -RA  (light rain)
KZPH 231555Z AUTO 26004KT 5SM -RA BKN037 OVC044 23/22 A3011 RMK AO2 LTG DSNT NE AND W P0011 T02300224

Conditions at: KZPH observed 23 July 2017  15:35 UTC
Temperature: 23.1°C (74°F)
Dewpoint: 22.5°C (72°F) [RH = 96%]
Pressure (altimeter): 30.11 inches Hg (1019.7 mb)
Winds: calm
Visibility: 5 miles (8 km)
Ceiling: 3500 feet AGL
Clouds: scattered clouds at 3000 feet AGL
broken clouds at 3500 feet AGL
overcast cloud deck at 4300 feet AGL
Present Weather: RA  (rain)
KZPH 231535Z AUTO 00000KT 5SM RA SCT030 BKN035 OVC043 23/23 A3011 RMK AO2 LTG DSNT ALQS P0007 T02310225

Conditions at: KZPH observed 23 July 2017  15:15 UTC
Temperature: 23.1°C (74°F)
Dewpoint: 22.5°C (72°F) [RH = 96%]
Pressure (altimeter): 30.10 inches Hg (1019.4 mb)
Winds: from the W (280 degrees) at 3 MPH (3 knots; 1.6 m/s)
Visibility: 5 miles (8 km)
Ceiling: 3600 feet AGL
Clouds: scattered clouds at 1800 feet AGL
broken clouds at 3600 feet AGL
overcast cloud deck at 5000 feet AGL
Present Weather: -TSRA  (light rain associated with thunderstorm(s))
KZPH 231515Z AUTO 28003KT 5SM -TSRA SCT018 BKN036 OVC050 23/23 A3010 RMK AO2 LTG DSNT NE SW AND W P0003 T02310225

Conditions at: KZPH observed 23 July 2017  14:55 UTC
Temperature: 23.3°C (74°F)
Dewpoint: 22.4°C (72°F) [RH = 95%]
Pressure (altimeter): 30.10 inches Hg (1019.4 mb)
Winds: from the W (270 degrees) at 6 MPH (5 knots; 2.6 m/s)
Visibility: 4 miles (6 km)
Ceiling: 3600 feet AGL
Clouds: scattered clouds at 1600 feet AGL
broken clouds at 3600 feet AGL
overcast cloud deck at 6500 feet AGL
Present Weather: +TSRA  (heavy rain associated with thunderstorm(s))
KZPH 231455Z AUTO 27005KT 4SM +TSRA SCT016 BKN036 OVC065 23/22 A3010 RMK AO2 LTG DSNT ALQS P0008 60008 T02330224

Conditions at: KZPH observed 23 July 2017  14:35 UTC
Temperature: 24.8°C (77°F)
Dewpoint: 23.8°C (75°F) [RH = 94%]
Pressure (altimeter): 30.10 inches Hg (1019.4 mb)
Winds: from the WSW (250 degrees) at 13 MPH (11 knots; 5.7 m/s)
Visibility: 7 miles (11 km)
Ceiling: 3400 feet AGL
Clouds: scattered clouds at 1500 feet AGL
scattered clouds at 2500 feet AGL
broken clouds at 3400 feet AGL
Present Weather: VCTS RA  (thunderstorm in vicinity, rain)
KZPH 231435Z AUTO 25011KT 7SM VCTSRA SCT015 SCT025 BKN034 25/24 A3010 RMK AO2 LTG DSNT ALQS P0002 T02480238

Conditions at: KZPH observed 23 July 2017  14:15 UTC
Temperature: 25.0°C (77°F)
Dewpoint: 24.0°C (75°F) [RH = 94%]
Pressure (altimeter): 30.08 inches Hg (1018.7 mb)
Winds: from the SW (220 degrees) at 3 MPH (3 knots; 1.6 m/s)
Visibility: 10 or more miles (16+ km)
Ceiling: at least 12,000 feet AGL
Clouds: scattered clouds at 4500 feet AGL
Present Weather: VCTS -DZ  (thunderstorm in vicinity, light drizzle)
KZPH 231415Z AUTO 22003KT 10SM -VCTSDZ SCT045 25/24 A3008 RMK AO2 LTG DSNT SW THRU NE T02500240

Conditions at: KZPH observed 23 July 2017  13:55 UTC
Temperature: 25.0°C (77°F)
Dewpoint: 24.0°C (75°F) [RH = 94%]
Pressure (altimeter): 30.08 inches Hg (1018.7 mb)
Winds: calm
Visibility: 10 or more miles (16+ km)
Ceiling: at least 12,000 feet AGL
Clouds: scattered clouds at 3700 feet AGL
scattered clouds at 4300 feet AGL
scattered clouds at 5500 feet AGL
Present Weather: VCTS -DZ  (thunderstorm in vicinity, light drizzle)
KZPH 231355Z AUTO 00000KT 10SM -VCTSDZ SCT037 SCT043 SCT055 25/24 A3008 RMK AO2 LTG DSNT ALQS T02500240

Conditions at: KZPH observed 23 July 2017  13:35 UTC
Temperature: 25.1°C (77°F)
Dewpoint: 23.7°C (75°F) [RH = 92%]
Pressure (altimeter): 30.08 inches Hg (1018.7 mb)
Winds: calm
Visibility: 10 or more miles (16+ km)
Ceiling: at least 12,000 feet AGL
Clouds: scattered clouds at 4000 feet AGL
scattered clouds at 6500 feet AGL
scattered clouds at 7000 feet AGL
Present Weather: VCTS -RA  (thunderstorm in vicinity, light rain)
KZPH 231335Z AUTO 00000KT 10SM -VCTSRA SCT040 SCT065 SCT070 25/24 A3008 RMK AO2 LTG DSNT SW THRU NE T02510237

Conditions at: KZPH observed 23 July 2017  13:15 UTC
Temperature: 25.1°C (77°F)
Dewpoint: 23.6°C (74°F) [RH = 91%]
Pressure (altimeter): 30.08 inches Hg (1018.7 mb)
Winds: from the SW (230 degrees) at 3 MPH (3 knots; 1.6 m/s)
Visibility: 10 or more miles (16+ km)
Ceiling: at least 12,000 feet AGL
Clouds: scattered clouds at 6500 feet AGL
scattered clouds at 7500 feet AGL
Present Weather: VCTS  (thunderstorm in vicinity)
KZPH 231315Z AUTO 23003KT 10SM VCTS SCT065 SCT075 25/24 A3008 RMK AO2 LTG DSNT SW THRU NW T02510236

Conditions at: KZPH observed 23 July 2017  12:55 UTC
Temperature: 25.3°C (78°F)
Dewpoint: 23.5°C (74°F) [RH = 90%]
Pressure (altimeter): 30.07 inches Hg (1018.4 mb)
Winds: from the SW (220 degrees) at 3 MPH (3 knots; 1.6 m/s)
Visibility: 10 or more miles (16+ km)
Ceiling: at least 12,000 feet AGL
Clouds: sky clear below 12,000 feet AGL
Present Weather: VCTS  (thunderstorm in vicinity)
KZPH 231255Z AUTO 22003KT 10SM VCTS CLR 25/24 A3007 RMK AO2 LTG DSNT SW THRU NW T02530235

Conditions at: KZPH observed 23 July 2017  12:35 UTC
Temperature: 25.5°C (78°F)
Dewpoint: 23.6°C (74°F) [RH = 89%]
Pressure (altimeter): 30.07 inches Hg (1018.4 mb)
Winds: from the S (190 degrees) at 5 MPH (4 knots; 2.1 m/s)
Visibility: 10 or more miles (16+ km)
Ceiling: at least 12,000 feet AGL
Clouds: sky clear below 12,000 feet AGL
Present Weather: VCTS  (thunderstorm in vicinity)
KZPH 231235Z AUTO 19004KT 10SM VCTS CLR 26/24 A3007 RMK AO2 LTG DSNT SW THRU NW T02550236

Conditions at: KZPH observed 23 July 2017  12:15 UTC
Temperature: 25.5°C (78°F)
Dewpoint: 23.6°C (74°F) [RH = 89%]
Pressure (altimeter): 30.06 inches Hg (1018.0 mb)
Winds: from the S (180 degrees) at 7 MPH (6 knots; 3.1 m/s)
Visibility: 10 or more miles (16+ km)
Ceiling: at least 12,000 feet AGL
Clouds: sky clear below 12,000 feet AGL
Present Weather: automated observation with no human augmentation;
there may or may not be significant weather present at this time
KZPH 231215Z AUTO 18006KT 10SM CLR 26/24 A3006 RMK AO2 LTG DSNT SW THRU NW T02550236

Conditions at: KZPH observed 23 July 2017  11:55 UTC
Temperature: 24.1°C (75°F)
Dewpoint: 23.2°C (74°F) [RH = 95%]
Pressure (altimeter): 30.05 inches Hg (1017.7 mb)
Winds: from the S (180 degrees) at 6 MPH (5 knots; 2.6 m/s)
Visibility: 7 miles (11 km)
Ceiling: at least 12,000 feet AGL
Clouds: sky clear below 12,000 feet AGL
Present Weather: automated observation with no human augmentation;
there may or may not be significant weather present at this time
KZPH 231155Z AUTO 18005KT 7SM CLR 24/23 A3005 RMK AO2 LTG DSNT SW THRU NW 70005 T02410232 10241 20230

Conditions at: KZPH observed 23 July 2017  11:35 UTC
Temperature: 23.7°C (75°F)
Dewpoint: 23.0°C (73°F) [RH = 96%]
Pressure (altimeter): 30.04 inches Hg (1017.4 mb)
Winds: calm
Visibility: 10 or more miles (16+ km)
Ceiling: at least 12,000 feet AGL
Clouds: sky clear below 12,000 feet AGL
Present Weather: automated observation with no human augmentation;
there may or may not be significant weather present at this time
KZPH 231135Z AUTO 00000KT 10SM CLR 24/23 A3004 RMK AO2 LTG DSNT SW THRU NW T02370230

Conditions at: KZPH observed 23 July 2017  11:15 UTC
Temperature: 23.3°C (74°F)
Dewpoint: 22.7°C (73°F) [RH = 96%]
Pressure (altimeter): 30.03 inches Hg (1017.0 mb)
Winds: from the SSE (160 degrees) at 3 MPH (3 knots; 1.6 m/s)
Visibility: 7 miles (11 km)
Ceiling: at least 12,000 feet AGL
Clouds: sky clear below 12,000 feet AGL
Present Weather: VCTS  (thunderstorm in vicinity)
KZPH 231115Z AUTO 16003KT 7SM VCTS CLR 23/23 A3003 RMK AO2 LTG DSNT SW THRU NW T02330227

Conditions at: KZPH observed 23 July 2017  10:55 UTC
Temperature: 23.0°C (73°F)
Dewpoint: 22.7°C (73°F) [RH = 98%]
Pressure (altimeter): 30.03 inches Hg (1017.0 mb)
Winds: from the SSE (150 degrees) at 5 MPH (4 knots; 2.1 m/s)
Visibility: 7 miles (11 km)
Ceiling: at least 12,000 feet AGL
Clouds: sky clear below 12,000 feet AGL
Present Weather: automated observation with no human augmentation;
there may or may not be significant weather present at this time
KZPH 231055Z AUTO 15004KT 7SM CLR 23/23 A3003 RMK AO2 LTG DSNT S THRU NW T02300227

Conditions at: KZPH observed 23 July 2017  10:35 UTC
Temperature: 23.1°C (74°F)
Dewpoint: 22.8°C (73°F) [RH = 98%]
Pressure (altimeter): 30.03 inches Hg (1017.0 mb)
Winds: calm
Visibility: 5 miles (8 km)
Ceiling: at least 12,000 feet AGL
Clouds: sky clear below 12,000 feet AGL
Present Weather: BR  (mist)
KZPH 231035Z AUTO 00000KT 5SM BR CLR 23/23 A3003 RMK AO2 LTG DSNT ALQS T02310228

Conditions at: KZPH observed 23 July 2017  10:15 UTC
Temperature: 23.2°C (74°F)
Dewpoint: 22.9°C (73°F) [RH = 98%]
Pressure (altimeter): 30.03 inches Hg (1017.0 mb)
Winds: from the SE (140 degrees) at 3 MPH (3 knots; 1.6 m/s)
Visibility: 7 miles (11 km)
Ceiling: at least 12,000 feet AGL
Clouds: sky clear below 12,000 feet AGL
Present Weather: automated observation with no human augmentation;
there may or may not be significant weather present at this time
KZPH 231015Z AUTO 14003KT 7SM CLR 23/23 A3003 RMK AO2 LTG DSNT ALQS T02320229

Conditions at: KZPH observed 23 July 2017  09:55 UTC
Temperature: 23.5°C (74°F)
Dewpoint: 23.0°C (73°F) [RH = 97%]
Pressure (altimeter): 30.03 inches Hg (1017.0 mb)
Winds: from the S (170 degrees) at 3 MPH (3 knots; 1.6 m/s)
Visibility: 10 or more miles (16+ km)
Ceiling: at least 12,000 feet AGL
Clouds: sky clear below 12,000 feet AGL
Present Weather: VCTS  (thunderstorm in vicinity)
KZPH 230955Z AUTO 17003KT 10SM VCTS CLR 24/23 A3003 RMK AO2 LTG DSNT SW AND W T02350230

Conditions at: KZPH observed 23 July 2017  09:35 UTC
Temperature: 23.3°C (74°F)
Dewpoint: 23.0°C (73°F) [RH = 98%]
Pressure (altimeter): 30.03 inches Hg (1017.0 mb)
Winds: from the S (190 degrees) at 3 MPH (3 knots; 1.6 m/s)
Visibility: 7 miles (11 km)
Ceiling: at least 12,000 feet AGL
Clouds: sky clear below 12,000 feet AGL
Present Weather: automated observation with no human augmentation;
there may or may not be significant weather present at this time
KZPH 230935Z AUTO 19003KT 7SM CLR 23/23 A3003 RMK AO2 LTG DSNT SW THRU NW T02330230

Conditions at: KZPH observed 23 July 2017  09:15 UTC
Temperature: 23.2°C (74°F)
Dewpoint: 22.9°C (73°F) [RH = 98%]
Pressure (altimeter): 30.02 inches Hg (1016.7 mb)
Winds: calm
Visibility: 7 miles (11 km)
Ceiling: at least 12,000 feet AGL
Clouds: sky clear below 12,000 feet AGL
Present Weather: automated observation with no human augmentation;
there may or may not be significant weather present at this time
KZPH 230915Z AUTO 00000KT 7SM CLR 23/23 A3002 RMK AO2 LTG DSNT E AND SW T02320229

Conditions at: KZPH observed 23 July 2017  08:55 UTC
Temperature: 23.1°C (74°F)
Dewpoint: 22.8°C (73°F) [RH = 98%]
Pressure (altimeter): 30.02 inches Hg (1016.7 mb)
Winds: calm
Visibility: 7 miles (11 km)
Ceiling: at least 12,000 feet AGL
Clouds: sky clear below 12,000 feet AGL
Present Weather: automated observation with no human augmentation;
there may or may not be significant weather present at this time
KZPH 230855Z AUTO 00000KT 7SM CLR 23/23 A3002 RMK AO2 LTG DSNT E SW AND NW T02310228

Conditions at: KZPH observed 23 July 2017  08:35 UTC
Temperature: 23.1°C (74°F)
Dewpoint: 22.8°C (73°F) [RH = 98%]
Pressure (altimeter): 30.02 inches Hg (1016.7 mb)
Winds: calm
Visibility: 7 miles (11 km)
Ceiling: at least 12,000 feet AGL
Clouds: sky clear below 12,000 feet AGL
Present Weather: VCTS  (thunderstorm in vicinity)
KZPH 230835Z AUTO 00000KT 7SM VCTS CLR 23/23 A3002 RMK AO2 LTG DSNT SW THRU NW T02310228

Conditions at: KZPH observed 23 July 2017  08:15 UTC
Temperature: 23.1°C (74°F)
Dewpoint: 22.9°C (73°F) [RH = 99%]
Pressure (altimeter): 30.03 inches Hg (1017.0 mb)
Winds: calm
Visibility: 5 miles (8 km)
Ceiling: at least 12,000 feet AGL
Clouds: sky clear below 12,000 feet AGL
Present Weather: VCTS BR  (thunderstorm in vicinity, mist)
KZPH 230815Z AUTO 00000KT 5SM VCTS BR CLR 23/23 A3003 RMK AO2 LTG DSNT SW THRU NW T02310229

Conditions at: KZPH observed 23 July 2017  07:55 UTC
Temperature: 23.3°C (74°F)
Dewpoint: 23.0°C (73°F) [RH = 98%]
Pressure (altimeter): 30.03 inches Hg (1017.0 mb)
Winds: calm
Visibility: 5 miles (8 km)
Ceiling: at least 12,000 feet AGL
Clouds: sky clear below 12,000 feet AGL
Present Weather: BR  (mist)
KZPH 230755Z AUTO 00000KT 5SM BR CLR 23/23 A3003 RMK AO2 LTG DSNT SE AND NW T02330230

Conditions at: KZPH observed 23 July 2017  07:35 UTC
Temperature: 23.5°C (74°F)
Dewpoint: 23.2°C (74°F) [RH = 98%]
Pressure (altimeter): 30.04 inches Hg (1017.4 mb)
Winds: from the S (170 degrees) at 3 MPH (3 knots; 1.6 m/s)
Visibility: 7 miles (11 km)
Ceiling: at least 12,000 feet AGL
Clouds: sky clear below 12,000 feet AGL
Present Weather: automated observation with no human augmentation;
there may or may not be significant weather present at this time
KZPH 230735Z AUTO 17003KT 7SM CLR 24/23 A3004 RMK AO2 LTG DSNT NW T02350232

Conditions at: KZPH observed 23 July 2017  07:15 UTC
Temperature: 23.4°C (74°F)
Dewpoint: 23.1°C (74°F) [RH = 98%]
Pressure (altimeter): 30.04 inches Hg (1017.4 mb)
Winds: from the S (170 degrees) at 3 MPH (3 knots; 1.6 m/s)
Visibility: 10 or more miles (16+ km)
Ceiling: at least 12,000 feet AGL
Clouds: sky clear below 12,000 feet AGL
Present Weather: automated observation with no human augmentation;
there may or may not be significant weather present at this time
KZPH 230715Z AUTO 17003KT 10SM CLR 23/23 A3004 RMK AO2 LTG DSNT NW T02340231

Conditions at: KZPH observed 23 July 2017  06:55 UTC
Temperature: 23.5°C (74°F)
Dewpoint: 23.2°C (74°F) [RH = 98%]
Pressure (altimeter): 30.05 inches Hg (1017.7 mb)
Winds: from the S (170 degrees) at 5 MPH (4 knots; 2.1 m/s)
Visibility: 10 or more miles (16+ km)
Ceiling: at least 12,000 feet AGL
Clouds: sky clear below 12,000 feet AGL
Present Weather: VCTS  (thunderstorm in vicinity)
KZPH 230655Z AUTO 17004KT 10SM VCTS CLR 24/23 A3005 RMK AO2 LTG DSNT NW T02350232

Conditions at: KZPH observed 23 July 2017  06:35 UTC
Temperature: 23.5°C (74°F)
Dewpoint: 23.1°C (74°F) [RH = 98%]
Pressure (altimeter): 30.05 inches Hg (1017.7 mb)
Winds: from the SSE (160 degrees) at 3 MPH (3 knots; 1.6 m/s)
Visibility: 10 or more miles (16+ km)
Ceiling: at least 12,000 feet AGL
Clouds: sky clear below 12,000 feet AGL
Present Weather: automated observation with no human augmentation;
there may or may not be significant weather present at this time
KZPH 230635Z AUTO 16003KT 10SM CLR 24/23 A3005 RMK AO2 LTG DSNT NW T02350231

Conditions at: KZPH observed 23 July 2017  05:55 UTC
Temperature: 23.3°C (74°F)
Dewpoint: 23.1°C (74°F) [RH = 99%]
Pressure (altimeter): 30.06 inches Hg (1018.0 mb)
Winds: from the SE (130 degrees) at 3 MPH (3 knots; 1.6 m/s)
Visibility: 7 miles (11 km)
Ceiling: at least 12,000 feet AGL
Clouds: sky clear below 12,000 feet AGL
Present Weather: automated observation with no human augmentation;
there may or may not be significant weather present at this time
KZPH 230555Z AUTO 13003KT 7SM CLR 23/23 A3006 RMK AO2 T02330231 10257 20231 403110216

Conditions at: KZPH observed 23 July 2017  05:35 UTC
Temperature: 23.1°C (74°F)
Dewpoint: 23.0°C (73°F) [RH = 99%]
Pressure (altimeter): 30.06 inches Hg (1018.0 mb)
Winds: from the SE (130 degrees) at 3 MPH (3 knots; 1.6 m/s)
Visibility: 7 miles (11 km)
Ceiling: at least 12,000 feet AGL
Clouds: sky clear below 12,000 feet AGL
Present Weather: automated observation with no human augmentation;
there may or may not be significant weather present at this time
KZPH 230535Z AUTO 13003KT 7SM CLR 23/23 A3006 RMK AO2 T02310230

Conditions at: KZPH observed 23 July 2017  05:15 UTC
Temperature: 23.2°C (74°F)
Dewpoint: 23.0°C (73°F) [RH = 99%]
Pressure (altimeter): 30.07 inches Hg (1018.4 mb)
Winds: calm
Visibility: 10 or more miles (16+ km)
Ceiling: at least 12,000 feet AGL
Clouds: sky clear below 12,000 feet AGL
Present Weather: automated observation with no human augmentation;
there may or may not be significant weather present at this time
KZPH 230515Z AUTO 00000KT 10SM CLR 23/23 A3007 RMK AO2 T02320230

Conditions at: KZPH observed 23 July 2017  04:55 UTC
Temperature: 23.3°C (74°F)
Dewpoint: 23.1°C (74°F) [RH = 99%]
Pressure (altimeter): 30.07 inches Hg (1018.4 mb)
Winds: calm
Visibility: 7 miles (11 km)
Ceiling: at least 12,000 feet AGL
Clouds: sky clear below 12,000 feet AGL
Present Weather: automated observation with no human augmentation;
there may or may not be significant weather present at this time
KZPH 230455Z AUTO 00000KT 7SM CLR 23/23 A3007 RMK AO2 T02330231

Conditions at: KZPH observed 23 July 2017  04:35 UTC
Temperature: 23.8°C (75°F)
Dewpoint: 23.4°C (74°F) [RH = 98%]
Pressure (altimeter): 30.07 inches Hg (1018.4 mb)
Winds: calm
Visibility: 10 or more miles (16+ km)
Ceiling: at least 12,000 feet AGL
Clouds: sky clear below 12,000 feet AGL
Present Weather: automated observation with no human augmentation;
there may or may not be significant weather present at this time
KZPH 230435Z AUTO 00000KT 10SM CLR 24/23 A3007 RMK AO2 T02380234

Conditions at: KZPH observed 23 July 2017  04:15 UTC
Temperature: 24.3°C (76°F)
Dewpoint: 23.7°C (75°F) [RH = 96%]
Pressure (altimeter): 30.07 inches Hg (1018.4 mb)
Winds: calm
Visibility: 10 or more miles (16+ km)
Ceiling: at least 12,000 feet AGL
Clouds: sky clear below 12,000 feet AGL
Present Weather: automated observation with no human augmentation;
there may or may not be significant weather present at this time
KZPH 230415Z AUTO 00000KT 10SM CLR 24/24 A3007 RMK AO2 T02430237

Conditions at: KZPH observed 23 July 2017  03:55 UTC
Temperature: 24.2°C (76°F)
Dewpoint: 23.5°C (74°F) [RH = 96%]
Pressure (altimeter): 30.06 inches Hg (1018.0 mb)
Winds: calm
Visibility: 10 or more miles (16+ km)
Ceiling: at least 12,000 feet AGL
Clouds: sky clear below 12,000 feet AGL
Present Weather: automated observation with no human augmentation;
there may or may not be significant weather present at this time
KZPH 230355Z AUTO 00000KT 10SM CLR 24/24 A3006 RMK AO2 T02420235

Conditions at: KZPH observed 23 July 2017  03:35 UTC
Temperature: 24.3°C (76°F)
Dewpoint: 23.5°C (74°F) [RH = 95%]
Pressure (altimeter): 30.06 inches Hg (1018.0 mb)
Winds: calm
Visibility: 10 or more miles (16+ km)
Ceiling: at least 12,000 feet AGL
Clouds: sky clear below 12,000 feet AGL
Present Weather: automated observation with no human augmentation;
there may or may not be significant weather present at this time
KZPH 230335Z AUTO 00000KT 10SM CLR 24/24 A3006 RMK AO2 T02430235

Conditions at: KZPH observed 23 July 2017  03:15 UTC
Temperature: 24.5°C (76°F)
Dewpoint: 23.5°C (74°F) [RH = 94%]
Pressure (altimeter): 30.06 inches Hg (1018.0 mb)
Winds: calm
Visibility: 10 or more miles (16+ km)
Ceiling: at least 12,000 feet AGL
Clouds: sky clear below 12,000 feet AGL
Present Weather: automated observation with no human augmentation;
there may or may not be significant weather present at this time
KZPH 230315Z AUTO 00000KT 10SM CLR 25/24 A3006 RMK AO2 T02450235

Conditions at: KZPH observed 23 July 2017  02:55 UTC
Temperature: 24.6°C (76°F)
Dewpoint: 23.6°C (74°F) [RH = 94%]
Pressure (altimeter): 30.06 inches Hg (1018.0 mb)
Winds: calm
Visibility: 10 or more miles (16+ km)
Ceiling: at least 12,000 feet AGL
Clouds: sky clear below 12,000 feet AGL
Present Weather: automated observation with no human augmentation;
there may or may not be significant weather present at this time
KZPH 230255Z AUTO 00000KT 10SM CLR 25/24 A3006 RMK AO2 T02460236

Conditions at: KZPH observed 23 July 2017  02:35 UTC
Temperature: 24.8°C (77°F)
Dewpoint: 23.9°C (75°F) [RH = 95%]
Pressure (altimeter): 30.05 inches Hg (1017.7 mb)
Winds: from the SSE (160 degrees) at 5 MPH (4 knots; 2.1 m/s)
Visibility: 10 or more miles (16+ km)
Ceiling: at least 12,000 feet AGL
Clouds: sky clear below 12,000 feet AGL
Present Weather: automated observation with no human augmentation;
there may or may not be significant weather present at this time
KZPH 230235Z AUTO 16004KT 10SM CLR 25/24 A3005 RMK AO2 T02480239

Conditions at: KZPH observed 23 July 2017  02:15 UTC
Temperature: 24.7°C (76°F)
Dewpoint: 24.2°C (76°F) [RH = 97%]
Pressure (altimeter): 30.06 inches Hg (1018.0 mb)
Winds: calm
Visibility: 10 or more miles (16+ km)
Ceiling: at least 12,000 feet AGL
Clouds: sky clear below 12,000 feet AGL
Present Weather: automated observation with no human augmentation;
there may or may not be significant weather present at this time
KZPH 230215Z AUTO 00000KT 10SM CLR 25/24 A3006 RMK AO2 T02470242

Conditions at: KZPH observed 23 July 2017  01:35 UTC
Temperature: 25.0°C (77°F)
Dewpoint: 24.2°C (76°F) [RH = 95%]
Pressure (altimeter): 30.05 inches Hg (1017.7 mb)
Winds: calm
Visibility: 10 or more miles (16+ km)
Ceiling: at least 12,000 feet AGL
Clouds: sky clear below 12,000 feet AGL
Present Weather: TS  (thunderstorm)
KZPH 230135Z AUTO 00000KT 10SM TS CLR 25/24 A3005 RMK AO2 LTG DSNT SW T02500242

Conditions at: KZPH observed 23 July 2017  01:15 UTC
Temperature: 25.1°C (77°F)
Dewpoint: 24.5°C (76°F) [RH = 96%]
Pressure (altimeter): 30.06 inches Hg (1018.0 mb)
Winds: calm
Visibility: 10 or more miles (16+ km)
Ceiling: at least 12,000 feet AGL
Clouds: sky clear below 12,000 feet AGL
Present Weather: automated observation with no human augmentation;
there may or may not be significant weather present at this time
KZPH 230115Z AUTO 00000KT 10SM CLR 25/25 A3006 RMK AO2 LTG DSNT SW T02510245

Conditions at: KZPH observed 23 July 2017  00:55 UTC
Temperature: 25.3°C (78°F)
Dewpoint: 24.5°C (76°F) [RH = 95%]
Pressure (altimeter): 30.06 inches Hg (1018.0 mb)
Winds: calm
Visibility: 10 or more miles (16+ km)
Ceiling: at least 12,000 feet AGL
Clouds: scattered clouds at 1900 feet AGL
Present Weather: automated observation with no human augmentation;
there may or may not be significant weather present at this time
KZPH 230055Z AUTO 00000KT 10SM SCT019 25/25 A3006 RMK AO2 LTG DSNT SW T02530245

Conditions at: KZPH observed 23 July 2017  00:35 UTC
Temperature: 25.3°C (78°F)
Dewpoint: 24.5°C (76°F) [RH = 95%]
Pressure (altimeter): 30.07 inches Hg (1018.4 mb)
Winds: from the SE (140 degrees) at 3 MPH (3 knots; 1.6 m/s)
Visibility: 10 or more miles (16+ km)
Ceiling: at least 12,000 feet AGL
Clouds: sky clear below 12,000 feet AGL
Present Weather: automated observation with no human augmentation;
there may or may not be significant weather present at this time
KZPH 230035Z AUTO 14003KT 10SM CLR 25/25 A3007 RMK AO2 T02530245

Conditions at: KZPH observed 23 July 2017  00:15 UTC
Temperature: 25.5°C (78°F)
Dewpoint: 24.5°C (76°F) [RH = 94%]
Pressure (altimeter): 30.07 inches Hg (1018.4 mb)
Winds: calm
Visibility: 10 or more miles (16+ km)
Ceiling: at least 12,000 feet AGL
Clouds: sky clear below 12,000 feet AGL
Present Weather: automated observation with no human augmentation;
there may or may not be significant weather present at this time
KZPH 230015Z AUTO 00000KT 10SM CLR 26/25 A3007 RMK AO2 LTG DSNT W T02550245

Conditions at: KZPH observed 22 July 2017  23:55 UTC
Temperature: 25.8°C (78°F)
Dewpoint: 24.4°C (76°F) [RH = 92%]
Pressure (altimeter): 30.07 inches Hg (1018.4 mb)
Winds: calm
Visibility: 10 or more miles (16+ km)
Ceiling: at least 12,000 feet AGL
Clouds: sky clear below 12,000 feet AGL
Present Weather: automated observation with no human augmentation;
there may or may not be significant weather present at this time
KZPH 222355Z AUTO 00000KT 10SM CLR 26/24 A3007 RMK AO2 LTG DSNT W AND NW 60002 T02580244 10265 20243

Conditions at: KZPH observed 22 July 2017  23:35 UTC
Temperature: 26.0°C (79°F)
Dewpoint: 24.2°C (76°F) [RH = 90%]
Pressure (altimeter): 30.07 inches Hg (1018.4 mb)
Winds: calm
Visibility: 10 or more miles (16+ km)
Ceiling: at least 12,000 feet AGL
Clouds: sky clear below 12,000 feet AGL
Present Weather: VCTS  (thunderstorm in vicinity)
KZPH 222335Z AUTO 00000KT 10SM VCTS CLR 26/24 A3007 RMK AO2 LTG DSNT SE THRU W T02600242

Conditions at: KZPH observed 22 July 2017  23:15 UTC
Temperature: 26.0°C (79°F)
Dewpoint: 24.4°C (76°F) [RH = 91%]
Pressure (altimeter): 30.06 inches Hg (1018.0 mb)
Winds: calm
Visibility: 10 or more miles (16+ km)
Ceiling: at least 12,000 feet AGL
Clouds: sky clear below 12,000 feet AGL
Present Weather: automated observation with no human augmentation;
there may or may not be significant weather present at this time
KZPH 222315Z AUTO 00000KT 10SM CLR 26/24 A3006 RMK AO2 LTG DSNT SE S AND NW T02600244

Conditions at: KZPH observed 22 July 2017  22:55 UTC
Temperature: 26.0°C (79°F)
Dewpoint: 24.4°C (76°F) [RH = 91%]
Pressure (altimeter): 30.06 inches Hg (1018.0 mb)
Winds: from the ESE (120 degrees) at 5 MPH (4 knots; 2.1 m/s)
Visibility: 10 or more miles (16+ km)
Ceiling: at least 12,000 feet AGL
Clouds: sky clear below 12,000 feet AGL
Present Weather: automated observation with no human augmentation;
there may or may not be significant weather present at this time
KZPH 222255Z AUTO 12004KT 10SM CLR 26/24 A3006 RMK AO2 LTG DSNT SE S AND NW T02600244

Conditions at: KZPH observed 22 July 2017  22:35 UTC
Temperature: 26.1°C (79°F)
Dewpoint: 24.3°C (76°F) [RH = 90%]
Pressure (altimeter): 30.06 inches Hg (1018.0 mb)
Winds: from the E (100 degrees) at 5 MPH (4 knots; 2.1 m/s)
Visibility: 10 or more miles (16+ km)
Ceiling: at least 12,000 feet AGL
Clouds: sky clear below 12,000 feet AGL
Present Weather: automated observation with no human augmentation;
there may or may not be significant weather present at this time
KZPH 222235Z AUTO 10004KT 10SM CLR 26/24 A3006 RMK AO2 LTG DSNT S T02610243

Conditions at: KZPH observed 22 July 2017  22:15 UTC
Temperature: 26.1°C (79°F)
Dewpoint: 24.1°C (75°F) [RH = 89%]
Pressure (altimeter): 30.07 inches Hg (1018.4 mb)
Winds: calm
Visibility: 10 or more miles (16+ km)
Ceiling: at least 12,000 feet AGL
Clouds: sky clear below 12,000 feet AGL
Present Weather: automated observation with no human augmentation;
there may or may not be significant weather present at this time
KZPH 222215Z AUTO 00000KT 10SM CLR 26/24 A3007 RMK AO2 LTG DSNT SW T02610241

Conditions at: KZPH observed 22 July 2017  21:55 UTC
Temperature: 26.2°C (79°F)
Dewpoint: 23.4°C (74°F) [RH = 85%]
Pressure (altimeter): 30.07 inches Hg (1018.4 mb)
Winds: calm
Visibility: 10 or more miles (16+ km)
Ceiling: at least 12,000 feet AGL
Clouds: sky clear below 12,000 feet AGL
Present Weather: automated observation with no human augmentation;
there may or may not be significant weather present at this time
KZPH 222155Z AUTO 00000KT 10SM CLR 26/23 A3007 RMK AO2 LTG DSNT SW T02620234

Conditions at: KZPH observed 22 July 2017  21:35 UTC
Temperature: 26.5°C (80°F)
Dewpoint: 24.0°C (75°F) [RH = 86%]
Pressure (altimeter): 30.07 inches Hg (1018.4 mb)
Winds: calm
Visibility: 10 or more miles (16+ km)
Ceiling: at least 12,000 feet AGL
Clouds: sky clear below 12,000 feet AGL
Present Weather: automated observation with no human augmentation;
there may or may not be significant weather present at this time
KZPH 222135Z AUTO 00000KT 10SM CLR 27/24 A3007 RMK AO2 LTG DSNT SW T02650240

Conditions at: KZPH observed 22 July 2017  21:15 UTC
Temperature: 26.5°C (80°F)
Dewpoint: 24.1°C (75°F) [RH = 87%]
Pressure (altimeter): 30.07 inches Hg (1018.4 mb)
Winds: from the NE (50 degrees) at 5 MPH (4 knots; 2.1 m/s)
Visibility: 10 or more miles (16+ km)
Ceiling: at least 12,000 feet AGL
Clouds: sky clear below 12,000 feet AGL
Present Weather: automated observation with no human augmentation;
there may or may not be significant weather present at this time
KZPH 222115Z AUTO 05004KT 10SM CLR 27/24 A3007 RMK AO2 LTG DSNT SW T02650241

Conditions at: KZPH observed 22 July 2017  20:55 UTC
Temperature: 26.3°C (79°F)
Dewpoint: 24.5°C (76°F) [RH = 90%]
Pressure (altimeter): 30.07 inches Hg (1018.4 mb)
Winds: calm
Visibility: 10 or more miles (16+ km)
Ceiling: at least 12,000 feet AGL
Clouds: scattered clouds at 600 feet AGL
Present Weather: automated observation with no human augmentation;
there may or may not be significant weather present at this time
KZPH 222055Z AUTO 00000KT 10SM SCT006 26/25 A3007 RMK AO2 LTG DSNT NE E AND SW 60002 T02630245

Conditions at: KZPH observed 22 July 2017  20:35 UTC
Temperature: 26.0°C (79°F)
Dewpoint: 24.5°C (76°F) [RH = 91%]
Pressure (altimeter): 30.07 inches Hg (1018.4 mb)
Winds: calm
Visibility: 10 or more miles (16+ km)
Ceiling: at least 12,000 feet AGL
Clouds: scattered clouds at 400 feet AGL
Present Weather: automated observation with no human augmentation;
there may or may not be significant weather present at this time
KZPH 222035Z AUTO 00000KT 10SM SCT004 26/25 A3007 RMK AO2 LTG DSNT NE AND S T02600245

Conditions at: KZPH observed 22 July 2017  20:15 UTC
Temperature: 25.6°C (78°F)
Dewpoint: 24.2°C (76°F) [RH = 92%]
Pressure (altimeter): 30.07 inches Hg (1018.4 mb)
Winds: calm
Visibility: 10 or more miles (16+ km)
Ceiling: at least 12,000 feet AGL
Clouds: sky clear below 12,000 feet AGL
Present Weather: automated observation with no human augmentation;
there may or may not be significant weather present at this time
KZPH 222015Z AUTO 00000KT 10SM CLR 26/24 A3007 RMK AO2 LTG DSNT E AND SW T02560242

Conditions at: KZPH observed 22 July 2017  19:55 UTC
Temperature: 25.3°C (78°F)
Dewpoint: 24.1°C (75°F) [RH = 93%]
Pressure (altimeter): 30.07 inches Hg (1018.4 mb)
Winds: calm
Visibility: 10 or more miles (16+ km)
Ceiling: at least 12,000 feet AGL
Clouds: sky clear below 12,000 feet AGL
Present Weather: VCTS  (thunderstorm in vicinity)
KZPH 221955Z AUTO 00000KT 10SM VCTS CLR 25/24 A3007 RMK AO2 LTG DSNT E THRU SW T02530241

Conditions at: KZPH observed 22 July 2017  19:35 UTC
Temperature: 25.0°C (77°F)
Dewpoint: 24.0°C (75°F) [RH = 94%]
Pressure (altimeter): 30.08 inches Hg (1018.7 mb)
Winds: calm
Visibility: 10 or more miles (16+ km)
Ceiling: at least 12,000 feet AGL
Clouds: sky clear below 12,000 feet AGL
Present Weather: automated observation with no human augmentation;
there may or may not be significant weather present at this time
KZPH 221935Z AUTO 00000KT 10SM CLR 25/24 A3008 RMK AO2 LTG DSNT NE SE AND SW T02500240

Conditions at: KZPH observed 22 July 2017  19:15 UTC
Temperature: 24.6°C (76°F)
Dewpoint: 23.9°C (75°F) [RH = 96%]
Pressure (altimeter): 30.08 inches Hg (1018.7 mb)
Winds: calm
Visibility: 10 or more miles (16+ km)
Ceiling: at least 12,000 feet AGL
Clouds: scattered clouds at 1300 feet AGL
Present Weather: automated observation with no human augmentation;
there may or may not be significant weather present at this time
KZPH 221915Z AUTO 00000KT 10SM SCT013 25/24 A3008 RMK AO2 LTG DSNT ALQS T02460239

Conditions at: KZPH observed 22 July 2017  18:55 UTC
Temperature: 24.3°C (76°F)
Dewpoint: 23.8°C (75°F) [RH = 97%]
Pressure (altimeter): 30.08 inches Hg (1018.7 mb)
Winds: calm
Visibility: 10 or more miles (16+ km)
Ceiling: at least 12,000 feet AGL
Clouds: scattered clouds at 3800 feet AGL
scattered clouds at 4400 feet AGL
scattered clouds at 5000 feet AGL
Present Weather: -RA  (light rain)
KZPH 221855Z AUTO 00000KT 10SM -RA SCT038 SCT044 SCT050 24/24 A3008 RMK AO2 LTG DSNT NE SE AND SW P0002 T02430238

Conditions at: KZPH observed 22 July 2017  18:35 UTC
Temperature: 24.5°C (76°F)
Dewpoint: 23.7°C (75°F) [RH = 95%]
Pressure (altimeter): 30.10 inches Hg (1019.4 mb)
Winds: calm
Visibility: 10 or more miles (16+ km)
Ceiling: 5000 feet AGL
Clouds: scattered clouds at 3900 feet AGL
scattered clouds at 4500 feet AGL
broken clouds at 5000 feet AGL
Present Weather: -TSRA  (light rain associated with thunderstorm(s))
KZPH 221835Z AUTO 00000KT 10SM -TSRA SCT039 SCT045 BKN050 25/24 A3010 RMK AO2 LTG DSNT ALQS P0001 T02450237

Conditions at: KZPH observed 22 July 2017  18:15 UTC
Temperature: 24.5°C (76°F)
Dewpoint: 23.8°C (75°F) [RH = 96%]
Pressure (altimeter): 30.11 inches Hg (1019.7 mb)
Winds: from the NE (50 degrees) at 3 MPH (3 knots; 1.6 m/s)
Visibility: 10 or more miles (16+ km)
Ceiling: 5000 feet AGL
Clouds: scattered clouds at 3900 feet AGL
scattered clouds at 4700 feet AGL
broken clouds at 5000 feet AGL
Present Weather: -TSRA  (light rain associated with thunderstorm(s))
KZPH 221815Z AUTO 05003KT 10SM -TSRA SCT039 SCT047 BKN050 25/24 A3011 RMK AO2 LTG DSNT ALQS T02450238

Conditions at: KZPH observed 22 July 2017  17:55 UTC
Temperature: 24.5°C (76°F)
Dewpoint: 23.7°C (75°F) [RH = 95%]
Pressure (altimeter): 30.11 inches Hg (1019.7 mb)
Winds: from the N (10 degrees) at 3 MPH (3 knots; 1.6 m/s)
Visibility: 10 or more miles (16+ km)
Ceiling: at least 12,000 feet AGL
Clouds: scattered clouds at 6000 feet AGL
scattered clouds at 6500 feet AGL
Present Weather: VCTS -RA  (thunderstorm in vicinity, light rain)
KZPH 221755Z AUTO 01003KT 10SM -VCTSRA SCT060 SCT065 25/24 A3011 RMK AO2 LTG DSNT ALQS 60003 T02450237 10311 20236

Conditions at: KZPH observed 22 July 2017  17:35 UTC
Temperature: 24.5°C (76°F)
Dewpoint: 23.6°C (74°F) [RH = 95%]
Pressure (altimeter): 30.11 inches Hg (1019.7 mb)
Winds: calm
Visibility: 10 or more miles (16+ km)
Ceiling: at least 12,000 feet AGL
Clouds: scattered clouds at 4000 feet AGL
scattered clouds at 5000 feet AGL
Present Weather: VCTS  (thunderstorm in vicinity)
KZPH 221735Z AUTO 00000KT 10SM VCTS SCT040 SCT050 25/24 A3011 RMK AO2 LTG DSNT ALQS T02450236

Conditions at: KZPH observed 22 July 2017  17:15 UTC
Temperature: 24.6°C (76°F)
Dewpoint: 23.4°C (74°F) [RH = 93%]
Pressure (altimeter): 30.11 inches Hg (1019.7 mb)
Winds: calm
Visibility: 10 or more miles (16+ km)
Ceiling: 5500 feet AGL
Clouds: scattered clouds at 3800 feet AGL
scattered clouds at 4600 feet AGL
broken clouds at 5500 feet AGL
Present Weather: VCTS  (thunderstorm in vicinity)
KZPH 221715Z AUTO 00000KT 10SM VCTS SCT038 SCT046 BKN055 25/23 A3011 RMK AO2 LTG DSNT ALQS T02460234

Conditions at: KZPH observed 22 July 2017  16:55 UTC
Temperature: 24.4°C (76°F)
Dewpoint: 23.2°C (74°F) [RH = 93%]
Pressure (altimeter): 30.12 inches Hg (1020.1 mb)
Winds: calm
Visibility: 10 or more miles (16+ km)
Ceiling: at least 12,000 feet AGL
Clouds: scattered clouds at 7000 feet AGL
scattered clouds at 9000 feet AGL
scattered clouds at 12000 feet AGL
Present Weather: -TSRA  (light rain associated with thunderstorm(s))
KZPH 221655Z AUTO 00000KT 10SM -TSRA SCT070 SCT090 SCT120 24/23 A3012 RMK AO2 LTG DSNT ALQS P0001 T02440232

Conditions at: KZPH observed 22 July 2017  16:35 UTC
Temperature: 24.1°C (75°F)
Dewpoint: 22.8°C (73°F) [RH = 92%]
Pressure (altimeter): 30.10 inches Hg (1019.4 mb)
Winds: calm
Visibility: 10 or more miles (16+ km)
Ceiling: at least 12,000 feet AGL
Clouds: scattered clouds at 7000 feet AGL
scattered clouds at 9000 feet AGL
Present Weather: -TSRA  (light rain associated with thunderstorm(s))
KZPH 221635Z AUTO 00000KT 10SM -TSRA SCT070 SCT090 24/23 A3010 RMK AO2 LTG DSNT ALQS P0001 T02410228

Conditions at: KZPH observed 22 July 2017  16:15 UTC
Temperature: 23.9°C (75°F)
Dewpoint: 22.6°C (73°F) [RH = 92%]
Pressure (altimeter): 30.12 inches Hg (1020.1 mb)
Winds: calm
Visibility: 10 or more miles (16+ km)
Ceiling: 2900 feet AGL
Clouds: scattered clouds at 1600 feet AGL
scattered clouds at 2400 feet AGL
broken clouds at 2900 feet AGL
Present Weather: -TSRA  (light rain associated with thunderstorm(s))
KZPH 221615Z AUTO 00000KT 10SM -TSRA SCT016 SCT024 BKN029 24/23 A3012 RMK AO2 LTG DSNT ALQS P0001 T02390226

Conditions at: KZPH observed 22 July 2017  15:55 UTC
Temperature: 24.6°C (76°F)
Dewpoint: 22.1°C (72°F) [RH = 86%]
Pressure (altimeter): 30.11 inches Hg (1019.7 mb)
Winds: from the S (180 degrees) at 8 MPH (7 knots; 3.6 m/s)
Visibility: 5 miles (8 km)
Ceiling: 2600 feet AGL
Clouds: scattered clouds at 1400 feet AGL
broken clouds at 2600 feet AGL
overcast cloud deck at 6000 feet AGL
Present Weather: TSRA  (rain associated with thunderstorm(s))
KZPH 221555Z AUTO 18007KT 5SM TSRA SCT014 BKN026 OVC060 25/22 A3011 RMK AO2 LTG DSNT ALQS P0002 T02460221

Conditions at: KZPH observed 22 July 2017  15:35 UTC
Temperature: 29.2°C (85°F)
Dewpoint: 23.0°C (73°F) [RH = 69%]
Pressure (altimeter): 30.11 inches Hg (1019.7 mb)
Winds: from the SW (230 degrees) at 17 MPH (15 knots; 7.8 m/s)
gusting to 23 MPH (20 knots; 10.4 m/s)
Visibility: 10 or more miles (16+ km)
Ceiling: 5500 feet AGL
Clouds: scattered clouds at 2600 feet AGL
scattered clouds at 4500 feet AGL
broken clouds at 5500 feet AGL
Present Weather: TS  (thunderstorm)
KZPH 221535Z AUTO 23015G20KT 10SM TS SCT026 SCT045 BKN055 29/23 A3011 RMK AO2 LTG DSNT ALQS T02920230

Conditions at: KZPH observed 22 July 2017  15:15 UTC
Temperature: 30.5°C (87°F)
Dewpoint: 24.8°C (77°F) [RH = 72%]
Pressure (altimeter): 30.11 inches Hg (1019.7 mb)
Winds: from the S (180 degrees) at 8 MPH (7 knots; 3.6 m/s)
Visibility: 10 or more miles (16+ km)
Ceiling: at least 12,000 feet AGL
Clouds: scattered clouds at 2100 feet AGL
scattered clouds at 8000 feet AGL
scattered clouds at 9000 feet AGL
Present Weather: TS  (thunderstorm)
KZPH 221515Z AUTO 18007KT 10SM TS SCT021 SCT080 SCT090 31/25 A3011 RMK AO2 LTG DSNT S THRU NW T03050248

Conditions at: KZPH observed 22 July 2017  14:55 UTC
Temperature: 30.6°C (87°F)
Dewpoint: 25.3°C (78°F) [RH = 73%]
Pressure (altimeter): 30.10 inches Hg (1019.4 mb)
Winds: from the S (170 degrees) at 3 MPH (3 knots; 1.6 m/s)
Visibility: 10 or more miles (16+ km)
Ceiling: at least 12,000 feet AGL
Clouds: scattered clouds at 1800 feet AGL
scattered clouds at 2600 feet AGL
Present Weather: VCTS  (thunderstorm in vicinity)
KZPH 221455Z AUTO 17003KT 10SM VCTS SCT018 SCT026 31/25 A3010 RMK AO2 LTG DSNT ALQS T03060253

Conditions at: KZPH observed 22 July 2017  14:35 UTC
Temperature: 29.7°C (85°F)
Dewpoint: 25.5°C (78°F) [RH = 78%]
Pressure (altimeter): 30.10 inches Hg (1019.4 mb)
Winds: from the S (170 degrees) at 5 MPH (4 knots; 2.1 m/s)
Visibility: 10 or more miles (16+ km)
Ceiling: at least 12,000 feet AGL
Clouds: sky clear below 12,000 feet AGL
Present Weather: VCTS  (thunderstorm in vicinity)
KZPH 221435Z AUTO 17004KT 10SM VCTS CLR 30/26 A3010 RMK AO2 LTG DSNT S THRU NW T02970255

Conditions at: KZPH observed 22 July 2017  14:15 UTC
Temperature: 29.1°C (84°F)
Dewpoint: 25.4°C (78°F) [RH = 81%]
Pressure (altimeter): 30.11 inches Hg (1019.7 mb)
Winds: from the S (170 degrees) at 7 MPH (6 knots; 3.1 m/s)
Visibility: 10 or more miles (16+ km)
Ceiling: at least 12,000 feet AGL
Clouds: sky clear below 12,000 feet AGL
Present Weather: VCTS  (thunderstorm in vicinity)
KZPH 221415Z AUTO 17006KT 10SM VCTS CLR 29/25 A3011 RMK AO2 LTG DSNT S THRU NW T02910254

Conditions at: KZPH observed 22 July 2017  13:55 UTC
Temperature: 28.2°C (83°F)
Dewpoint: 25.3°C (78°F) [RH = 84%]
Pressure (altimeter): 30.11 inches Hg (1019.7 mb)
Winds: from the SE (140 degrees) at 6 MPH (5 knots; 2.6 m/s)
Visibility: 10 or more miles (16+ km)
Ceiling: at least 12,000 feet AGL
Clouds: sky clear below 12,000 feet AGL
Present Weather: VCTS  (thunderstorm in vicinity)
KZPH 221355Z AUTO 14005KT 10SM VCTS CLR 28/25 A3011 RMK AO2 LTG DSNT S THRU W T02820253

Conditions at: KZPH observed 22 July 2017  13:35 UTC
Temperature: 27.4°C (81°F)
Dewpoint: 25.1°C (77°F) [RH = 87%]
Pressure (altimeter): 30.11 inches Hg (1019.7 mb)
Winds: from the SSE (160 degrees) at 3 MPH (3 knots; 1.6 m/s)
Visibility: 10 or more miles (16+ km)
Ceiling: at least 12,000 feet AGL
Clouds: scattered clouds at 8000 feet AGL
Present Weather: VCTS  (thunderstorm in vicinity)
KZPH 221335Z AUTO 16003KT 10SM VCTS SCT080 27/25 A3011 RMK AO2 LTG DSNT S THRU W T02740251

Conditions at: KZPH observed 22 July 2017  13:15 UTC
Temperature: 26.6°C (80°F)
Dewpoint: 24.6°C (76°F) [RH = 89%]
Pressure (altimeter): 30.11 inches Hg (1019.7 mb)
Winds: from the SSW (200 degrees) at 3 MPH (3 knots; 1.6 m/s)
Visibility: 10 or more miles (16+ km)
Ceiling: at least 12,000 feet AGL
Clouds: scattered clouds at 7500 feet AGL
scattered clouds at 8000 feet AGL
Present Weather: VCTS  (thunderstorm in vicinity)
KZPH 221315Z AUTO 20003KT 10SM VCTS SCT075 SCT080 27/25 A3011 RMK AO2 LTG DSNT S THRU NW T02660246

Conditions at: KZPH observed 22 July 2017  12:55 UTC
Temperature: 25.6°C (78°F)
Dewpoint: 24.5°C (76°F) [RH = 94%]
Pressure (altimeter): 30.10 inches Hg (1019.4 mb)
Winds: from the SSE (160 degrees) at 3 MPH (3 knots; 1.6 m/s)
Visibility: 10 or more miles (16+ km)
Ceiling: at least 12,000 feet AGL
Clouds: scattered clouds at 4400 feet AGL
Present Weather: automated observation with no human augmentation;
there may or may not be significant weather present at this time
KZPH 221255Z AUTO 16003KT 10SM SCT044 26/25 A3010 RMK AO2 LTG DSNT S THRU NW T02560245

Conditions at: KZPH observed 22 July 2017  12:35 UTC
Temperature: 24.7°C (76°F)
Dewpoint: 24.3°C (76°F) [RH = 98%]
Pressure (altimeter): 30.10 inches Hg (1019.4 mb)
Winds: calm
Visibility: 7 miles (11 km)
Ceiling: at least 12,000 feet AGL
Clouds: scattered clouds at 4600 feet AGL
Present Weather: TS  (thunderstorm)
KZPH 221235Z AUTO 00000KT 7SM TS SCT046 25/24 A3010 RMK AO2 LTG DSNT S THRU NW T02470243

Conditions at: KZPH observed 22 July 2017  12:15 UTC
Temperature: 24.0°C (75°F)
Dewpoint: 23.8°C (75°F) [RH = 99%]
Pressure (altimeter): 30.09 inches Hg (1019.0 mb)
Winds: calm
Visibility: 7 miles (11 km)
Ceiling: at least 12,000 feet AGL
Clouds: sky clear below 12,000 feet AGL
Present Weather: TS  (thunderstorm)
KZPH 221215Z AUTO 00000KT 7SM TS CLR 24/24 A3009 RMK AO2 LTG DSNT S THRU NW T02400238

Conditions at: KZPH observed 22 July 2017  11:55 UTC
Temperature: 23.6°C (74°F)
Dewpoint: 23.5°C (74°F) [RH = 99%]
Pressure (altimeter): 30.08 inches Hg (1018.7 mb)
Winds: calm
Visibility: 7 miles (11 km)
Ceiling: at least 12,000 feet AGL
Clouds: sky clear below 12,000 feet AGL
Present Weather: automated observation with no human augmentation;
there may or may not be significant weather present at this time
KZPH 221155Z AUTO 00000KT 7SM CLR 24/24 A3008 RMK AO2 LTG DSNT S THRU NW 70010 T02360235 10236 20216

Conditions at: KZPH observed 22 July 2017  11:35 UTC
Temperature: 22.7°C (73°F)
Dewpoint: 22.7°C (73°F) [RH = 100%]
Pressure (altimeter): 30.08 inches Hg (1018.7 mb)
Winds: calm
Visibility: 5 miles (8 km)
Ceiling: at least 12,000 feet AGL
Clouds: sky clear below 12,000 feet AGL
Present Weather: VCTS BR  (thunderstorm in vicinity, mist)
KZPH 221135Z AUTO 00000KT 5SM VCTS BR CLR 23/23 A3008 RMK AO2 LTG DSNT SW THRU NW T02270227

Conditions at: KZPH observed 22 July 2017  11:15 UTC
Temperature: 22.4°C (72°F)
Dewpoint: 22.4°C (72°F) [RH = 100%]
Pressure (altimeter): 30.07 inches Hg (1018.4 mb)
Winds: calm
Visibility: 4 miles (6 km)
Ceiling: at least 12,000 feet AGL
Clouds: sky clear below 12,000 feet AGL
Present Weather: VCTS BR  (thunderstorm in vicinity, mist)
KZPH 221115Z AUTO 00000KT 4SM VCTS BR CLR 22/22 A3007 RMK AO2 LTG DSNT S THRU NW T02240224

Conditions at: KZPH observed 22 July 2017  10:55 UTC
Temperature: 22.1°C (72°F)
Dewpoint: 22.1°C (72°F) [RH = 100%]
Pressure (altimeter): 30.06 inches Hg (1018.0 mb)
Winds: calm
Visibility: 5 miles (8 km)
Ceiling: at least 12,000 feet AGL
Clouds: sky clear below 12,000 feet AGL
Present Weather: BR  (mist)
KZPH 221055Z AUTO 00000KT 5SM BR CLR 22/22 A3006 RMK AO2 LTG DSNT S AND W T02210221

Conditions at: KZPH observed 22 July 2017  10:35 UTC
Temperature: 22.0°C (72°F)
Dewpoint: 21.9°C (71°F) [RH = 99%]
Pressure (altimeter): 30.06 inches Hg (1018.0 mb)
Winds: calm
Visibility: 7 miles (11 km)
Ceiling: at least 12,000 feet AGL
Clouds: sky clear below 12,000 feet AGL
Present Weather: automated observation with no human augmentation;
there may or may not be significant weather present at this time
KZPH 221035Z AUTO 00000KT 7SM CLR 22/22 A3006 RMK AO2 LTG DSNT SW THRU NW T02200219

Conditions at: KZPH observed 22 July 2017  10:15 UTC
Temperature: 21.7°C (71°F)
Dewpoint: 21.6°C (71°F) [RH = 99%]
Pressure (altimeter): 30.05 inches Hg (1017.7 mb)
Winds: calm
Visibility: 7 miles (11 km)
Ceiling: at least 12,000 feet AGL
Clouds: sky clear below 12,000 feet AGL
Present Weather: automated observation with no human augmentation;
there may or may not be significant weather present at this time
KZPH 221015Z AUTO 00000KT 7SM CLR 22/22 A3005 RMK AO2 LTG DSNT SW AND W T02170216

Conditions at: KZPH observed 22 July 2017  09:55 UTC
Temperature: 21.7°C (71°F)
Dewpoint: 21.6°C (71°F) [RH = 99%]
Pressure (altimeter): 30.05 inches Hg (1017.7 mb)
Winds: calm
Visibility: 7 miles (11 km)
Ceiling: at least 12,000 feet AGL
Clouds: sky clear below 12,000 feet AGL
Present Weather: automated observation with no human augmentation;
there may or may not be significant weather present at this time
KZPH 220955Z AUTO 00000KT 7SM CLR 22/22 A3005 RMK AO2 LTG DSNT SW AND W T02170216

Conditions at: KZPH observed 22 July 2017  09:35 UTC
Temperature: 22.0°C (72°F)
Dewpoint: 21.9°C (71°F) [RH = 99%]
Pressure (altimeter): 30.04 inches Hg (1017.4 mb)
Winds: calm
Visibility: 7 miles (11 km)
Ceiling: at least 12,000 feet AGL
Clouds: sky clear below 12,000 feet AGL
Present Weather: automated observation with no human augmentation;
there may or may not be significant weather present at this time
KZPH 220935Z AUTO 00000KT 7SM CLR 22/22 A3004 RMK AO2 LTG DSNT W T02200219

Conditions at: KZPH observed 22 July 2017  09:15 UTC
Temperature: 21.8°C (71°F)
Dewpoint: 21.7°C (71°F) [RH = 99%]
Pressure (altimeter): 30.04 inches Hg (1017.4 mb)
Winds: calm
Visibility: 7 miles (11 km)
Ceiling: at least 12,000 feet AGL
Clouds: sky clear below 12,000 feet AGL
Present Weather: automated observation with no human augmentation;
there may or may not be significant weather present at this time
KZPH 220915Z AUTO 00000KT 7SM CLR 22/22 A3004 RMK AO2 LTG DSNT SW T02180217

Conditions at: KZPH observed 22 July 2017  08:55 UTC
Temperature: 21.8°C (71°F)
Dewpoint: 21.6°C (71°F) [RH = 99%]
Pressure (altimeter): 30.04 inches Hg (1017.4 mb)
Winds: calm
Visibility: 7 miles (11 km)
Ceiling: at least 12,000 feet AGL
Clouds: sky clear below 12,000 feet AGL
Present Weather: automated observation with no human augmentation;
there may or may not be significant weather present at this time
KZPH 220855Z AUTO 00000KT 7SM CLR 22/22 A3004 RMK AO2 T02180216